Time;durP1;ratioP1;P1;durP2;ratioP2;P2;SDS_P1;SDS_P2;PMS_P1;PMS_P2;Temp;Humidity;BMP_temperature;BMP_pressure;BME280_temperature;BME280_humidity;BME280_pressure;Samples;Min_cycle;Max_cycle;Signal;HPM_P1;HPM_P2
2022/01/23 00:00:40;;;;;;;51.83;34.17;;;;;;;4.11;100.00;102508.53;5070196;28;20035;-63
2022/01/23 00:03:12;;;;;;;48.78;33.30;;;;;;;4.13;100.00;102500.72;5070903;28;20029;-64
2022/01/23 00:05:41;;;;;;;48.17;32.05;;;;;;;4.17;100.00;102491.22;5069996;28;20040;-63
2022/01/23 00:08:07;;;;;;;44.83;32.67;;;;;;;4.13;100.00;102496.41;5069751;28;20036;-63
2022/01/23 00:10:33;;;;;;;45.35;33.80;;;;;;;4.17;100.00;102492.09;5069570;28;20062;-63
2022/01/23 00:13:21;;;;;;;49.83;33.03;;;;;;;4.15;100.00;102504.22;5068996;28;20032;-63
2022/01/23 00:18:31;;;;;;;44.38;31.60;;;;;;;4.11;100.00;102500.72;5068310;28;20079;-62
2022/01/23 00:20:57;;;;;;;42.92;32.45;;;;;;;4.12;100.00;102499.84;5069282;28;20025;-63
2022/01/23 00:23:33;;;;;;;46.67;31.98;;;;;;;4.10;100.00;102495.50;5068583;28;20024;-63
2022/01/23 00:31:28;;;;;;;;;;;;;;;4.15;100.00;102491.22;5068523;28;20159;-63
2022/01/23 00:33:54;;;;;;;50.42;32.58;;;;;;;4.13;100.00;102488.59;5067167;28;19957;-63
2022/01/23 00:36:24;;;;;;;51.92;35.55;;;;;;;4.12;100.00;102493.78;5068252;28;20775;-63
2022/01/23 00:38:50;;;;;;;46.22;32.90;;;;;;;4.10;100.00;102491.16;5068118;28;20029;-63
2022/01/23 00:41:15;;;;;;;48.85;33.63;;;;;;;4.11;100.00;102477.31;5066498;28;20068;-63
2022/01/23 00:43:43;;;;;;;44.15;33.42;;;;;;;4.09;100.00;102478.13;5067518;28;20041;-63
2022/01/23 00:48:42;;;;;;;42.28;31.63;;;;;;;3.69;100.00;102423.97;5069104;28;20040;-63
2022/01/23 00:51:07;;;;;;;51.10;34.28;;;;;;;4.06;100.00;102489.38;5068486;28;20505;-63
2022/01/23 00:53:33;;;;;;;49.22;32.55;;;;;;;4.06;100.00;102484.19;5083984;28;20024;-62
2022/01/23 00:55:58;;;;;;;49.95;33.92;;;;;;;4.03;100.00;102476.34;5065674;28;20135;-63
2022/01/23 00:58:24;;;;;;;47.03;34.70;;;;;;;4.09;100.00;102489.41;5066212;28;20033;-63
2022/01/23 01:00:49;;;;;;;51.75;35.35;;;;;;;4.08;100.00;102487.69;5067286;28;20387;-63
2022/01/23 01:03:15;;;;;;;42.97;31.80;;;;;;;4.07;100.00;102485.06;5069082;28;20028;-63
2022/01/23 01:05:40;;;;;;;44.65;33.20;;;;;;;4.05;100.00;102489.38;5068903;28;20028;-63
2022/01/23 01:08:06;;;;;;;44.00;33.25;;;;;;;4.08;100.00;102497.22;5069609;28;20040;-63
2022/01/23 01:10:53;;;;;;;50.15;33.30;;;;;;;4.08;100.00;102502.41;5067364;28;20032;-63
2022/01/23 01:13:18;;;;;;;55.08;35.20;;;;;;;3.92;100.00;102469.31;5067749;28;20044;-63
2022/01/23 01:16:24;;;;;;;39.88;30.38;;;;;;;4.06;100.00;102489.38;5068754;28;20032;-63
2022/01/23 01:32:44;;;;;;;56.97;34.13;;;;;;;4.05;100.00;102461.66;5067996;28;20124;-63
2022/01/23 01:38:07;;;;;;;52.15;35.00;;;;;;;3.66;100.00;102396.22;5056669;28;20040;-63
2022/01/23 01:40:33;;;;;;;53.70;34.95;;;;;;;4.02;100.00;102461.59;5069275;28;20054;-63
2022/01/23 01:42:58;;;;;;;51.85;35.28;;;;;;;4.03;100.00;102463.34;5069507;28;20795;-63
2022/01/23 01:45:26;;;;;;;53.42;34.25;;;;;;;4.01;100.00;102464.19;5068825;28;20035;-64
2022/01/23 01:47:53;;;;;;;57.75;36.92;;;;;;;4.00;100.00;102458.13;5068188;28;20074;-63
2022/01/23 01:50:19;;;;;;;46.40;31.30;;;;;;;4.01;100.00;102467.69;5066962;28;20077;-62
2022/01/23 01:52:45;;;;;;;48.92;33.72;;;;;;;4.01;100.00;102479.81;5069186;28;20036;-62
2022/01/23 01:55:15;;;;;;;51.53;34.22;;;;;;;3.99;100.00;102461.56;5068536;28;20032;-62
2022/01/23 01:57:50;;;;;;;52.75;34.72;;;;;;;3.83;100.00;102449.28;5068053;28;20089;-62
2022/01/23 02:00:39;;;;;;;50.55;33.22;;;;;;;3.97;100.00;102468.50;5068808;28;20501;-62
2022/01/23 02:08:30;;;;;;;49.30;32.95;;;;;;;4.03;100.00;102478.06;5067918;28;20118;-63
2022/01/23 02:11:08;;;;;;;48.83;34.38;;;;;;;4.04;100.00;102488.50;5068156;28;20043;-63
2022/01/23 02:17:02;;;;;;;45.63;31.38;;;;;;;3.99;100.00;102484.97;5068139;28;20406;-63
2022/01/23 02:52:38;;;;;;;52.72;34.85;;;;;;;3.94;100.00;102437.25;5068403;28;20528;-62
2022/01/23 02:57:22;;;;;;;48.28;33.83;;;;;;;3.92;100.00;102435.50;5067693;28;20044;-61
2022/01/23 02:59:49;;;;;;;43.72;32.55;;;;;;;3.89;100.00;102433.72;5069139;28;20024;-61
2022/01/23 03:02:29;;;;;;;58.13;38.03;;;;;;;3.91;100.00;102425.97;5066950;28;20756;-61
2022/01/23 03:05:00;;;;;;;47.45;35.60;;;;;;;3.88;100.00;102423.34;5066678;28;20134;-62
2022/01/23 03:07:49;;;;;;;54.05;35.38;;;;;;;3.70;100.00;102405.81;5067168;28;20040;-62
2022/01/23 03:10:22;;;;;;;47.85;34.97;;;;;;;3.73;100.00;102415.34;5067858;28;20421;-62
2022/01/23 03:26:21;;;;;;;55.03;37.50;;;;;;;3.88;100.00;102457.13;5068016;28;20043;-62
2022/01/23 03:31:25;;;;;;;53.65;38.35;;;;;;;3.90;100.00;102469.28;5066646;28;20039;-62
2022/01/23 03:33:52;;;;;;;53.15;36.92;;;;;;;3.88;100.00;102458.00;5066706;28;20439;-62
2022/01/23 03:36:17;;;;;;;53.80;37.63;;;;;;;3.88;100.00;102445.00;5066131;28;20024;-62
2022/01/23 03:38:43;;;;;;;58.90;38.20;;;;;;;3.88;100.00;102451.94;5066237;28;20036;-62
2022/01/23 03:41:09;;;;;;;64.90;37.72;;;;;;;3.85;100.00;102439.75;5066719;28;20036;-62
2022/01/23 03:43:38;;;;;;;63.50;38.25;;;;;;;3.90;100.00;102452.81;5058187;28;20364;-62
2022/01/23 03:46:22;;;;;;;58.08;39.70;;;;;;;3.89;100.00;102454.53;5066686;28;20025;-62
2022/01/23 03:51:20;;;;;;;57.88;36.72;;;;;;;3.87;100.00;102453.66;5071128;28;20044;-62
2022/01/23 03:53:46;;;;;;;55.92;37.25;;;;;;;3.87;100.00;102450.19;5070092;28;20070;-62
2022/01/23 03:56:12;;;;;;;51.42;38.38;;;;;;;3.87;100.00;102456.25;5069280;28;20565;-62
2022/01/23 03:58:37;;;;;;;51.30;37.53;;;;;;;3.87;100.00;102456.25;5069567;28;20035;-62
2022/01/23 04:01:03;;;;;;;53.13;36.58;;;;;;;3.87;100.00;102456.25;5071985;28;20107;-62
2022/01/23 04:03:29;;;;;;;55.50;35.47;;;;;;;3.86;100.00;102448.44;5078900;28;20043;-62
2022/01/23 04:05:54;;;;;;;61.03;39.90;;;;;;;3.87;100.00;102448.44;5070124;28;20064;-62
2022/01/23 04:08:20;;;;;;;55.85;38.42;;;;;;;3.88;100.00;102444.13;5070682;28;20124;-63
2022/01/23 04:10:46;;;;;;;52.55;37.22;;;;;;;3.90;100.00;102463.22;5069140;28;20402;-62
2022/01/23 04:34:25;;;;;;;65.25;37.70;;;;;;;3.83;100.00;102453.59;5069130;28;20048;-63
2022/01/23 04:45:27;;;;;;;57.73;38.13;;;;;;;3.70;100.00;102437.00;5069270;28;20059;-63
2022/01/23 05:01:53;;;;;;;59.88;38.15;;;;;;;3.82;100.00;102463.13;5067033;28;20535;-62
2022/01/23 05:06:42;;;;;;;51.83;37.28;;;;;;;3.82;100.00;102472.69;5064625;28;20059;-62
2022/01/23 05:09:09;;;;;;;;;;;;;;;3.81;100.00;102464.00;5068268;28;20470;-62
2022/01/23 05:11:36;;;;;;;60.05;38.97;;;;;;;3.06;100.00;102340.16;5067844;28;19909;-63
2022/01/23 05:14:03;;;;;;;52.85;36.47;;;;;;;3.48;100.00;102401.25;5068546;28;20050;-63
2022/01/23 05:16:31;;;;;;;66.55;39.97;;;;;;;3.75;100.00;102456.09;5068875;28;20032;-61
2022/01/23 05:18:56;;;;;;;61.80;38.35;;;;;;;3.81;100.00;102471.78;5068968;28;20089;-62
2022/01/23 05:23:53;;;;;;;51.50;35.40;;;;;;;3.81;100.00;102471.78;5068576;28;20372;-62
2022/01/23 05:26:18;;;;;;;57.15;37.78;;;;;;;3.82;100.00;102473.53;5068224;28;20103;-61
2022/01/23 05:28:44;;;;;;;56.78;38.75;;;;;;;3.38;100.00;102392.47;5066507;28;20830;-61
2022/01/23 05:31:09;;;;;;;56.80;37.78;;;;;;;3.70;100.00;102441.31;5066842;28;20123;-61
2022/01/23 05:33:35;;;;;;;52.85;36.78;;;;;;;3.45;100.00;102389.06;5068498;28;20085;-61
2022/01/23 05:36:00;;;;;;;67.35;37.08;;;;;;;3.82;100.00;102457.91;5068122;28;20036;-63
2022/01/23 05:38:25;;;;;;;59.90;36.55;;;;;;;3.81;100.00;102468.31;5066765;28;20179;-62
2022/01/23 05:40:56;;;;;;;59.15;38.13;;;;;;;3.81;100.00;102460.53;5066085;28;20554;-62
2022/01/23 05:43:22;;;;;;;55.50;35.80;;;;;;;3.81;100.00;102456.19;5067745;28;20040;-64
2022/01/23 05:45:48;;;;;;;51.58;35.97;;;;;;;3.79;100.00;102455.28;5068448;28;20540;-62
2022/01/23 05:48:13;;;;;;;52.42;36.47;;;;;;;3.80;100.00;102454.44;5068491;28;20418;-62
2022/01/23 05:50:38;;;;;;;53.28;35.42;;;;;;;3.60;100.00;102435.16;5067975;28;20036;-62
2022/01/23 05:53:04;;;;;;;59.25;37.30;;;;;;;3.76;100.00;102455.25;5067541;28;20029;-62
2022/01/23 05:55:30;;;;;;;52.75;36.90;;;;;;;3.78;100.00;102460.50;5065391;28;20036;-62
2022/01/23 05:57:55;;;;;;;55.83;37.97;;;;;;;3.77;100.00;102462.22;5064086;28;20032;-62
2022/01/23 06:00:20;;;;;;;53.63;36.70;;;;;;;3.79;100.00;102468.28;5064763;28;20115;-62
2022/01/23 06:02:46;;;;;;;58.42;35.88;;;;;;;3.52;100.00;102410.81;5065299;28;20040;-62
2022/01/23 06:05:11;;;;;;;57.47;37.60;;;;;;;3.79;100.00;102455.28;5063675;28;20483;-62
2022/01/23 06:07:37;;;;;;;59.55;38.03;;;;;;;3.77;100.00;102453.53;5063511;28;20082;-62
2022/01/23 06:10:04;;;;;;;59.70;38.65;;;;;;;3.78;100.00;102456.16;5061923;28;20037;-62
2022/01/23 06:12:29;;;;;;;59.20;37.80;;;;;;;3.79;100.00;102457.88;5065723;28;20028;-61
2022/01/23 06:14:54;;;;;;;58.97;37.03;;;;;;;3.79;100.00;102457.88;5064486;28;20185;-63
2022/01/23 06:17:20;;;;;;;55.97;39.63;;;;;;;3.77;100.00;102464.81;5057228;28;20119;-63
2022/01/23 06:19:45;;;;;;;56.25;36.80;;;;;;;3.73;100.00;102463.03;5065465;28;20052;-62
2022/01/23 06:22:11;;;;;;;52.45;37.10;;;;;;;3.77;100.00;102464.81;5065190;28;20555;-63
2022/01/23 06:24:44;;;;;;;54.58;36.42;;;;;;;3.76;100.00;102470.84;5057673;28;20442;-63
2022/01/23 06:27:10;;;;;;;52.72;37.85;;;;;;;3.72;100.00;102471.66;5066086;28;20036;-62
2022/01/23 06:29:35;;;;;;;55.45;36.75;;;;;;;3.74;100.00;102480.38;5057074;28;20044;-63
2022/01/23 06:32:02;;;;;;;61.70;37.42;;;;;;;3.75;100.00;102474.31;5063087;28;20032;-63
2022/01/23 06:34:29;;;;;;;56.00;36.45;;;;;;;3.76;100.00;102482.97;5064250;28;20075;-63
2022/01/23 06:36:54;;;;;;;50.45;35.47;;;;;;;3.76;100.00;102486.47;5065294;28;20062;-63
2022/01/23 06:39:21;;;;;;;53.30;35.58;;;;;;;3.75;100.00;102486.47;5063335;28;20028;-63
2022/01/23 06:41:47;;;;;;;60.30;37.83;;;;;;;3.73;100.00;102482.94;5062129;28;20040;-62
2022/01/23 06:44:12;;;;;;;51.08;37.50;;;;;;;3.72;100.00;102489.03;5062820;28;20032;-61
2022/01/23 06:46:39;;;;;;;60.00;40.63;;;;;;;3.71;100.00;102487.28;5065342;28;20483;-61
2022/01/23 06:49:05;;;;;;;57.80;38.88;;;;;;;3.71;100.00;102501.16;5060739;28;20347;-62
2022/01/23 06:51:31;;;;;;;56.97;39.55;;;;;;;3.72;100.00;102502.88;5056971;28;20068;-62
2022/01/23 06:53:56;;;;;;;53.65;37.35;;;;;;;3.72;100.00;102489.88;5056669;28;20077;-61
2022/01/23 06:56:21;;;;;;;55.33;38.72;;;;;;;3.73;100.00;102496.81;5054950;28;20054;-63
2022/01/23 06:58:47;;;;;;;58.78;37.35;;;;;;;3.71;100.00;102498.53;5055829;28;20760;-62
2022/01/23 07:01:12;;;;;;;61.72;36.78;;;;;;;3.54;100.00;102467.16;5064782;28;20039;-61
2022/01/23 07:03:38;;;;;;;51.78;37.70;;;;;;;3.69;100.00;102491.56;5055508;28;20020;-61
2022/01/23 07:06:04;;;;;;;54.00;37.08;;;;;;;3.70;100.00;102489.00;5057423;28;20577;-61
2022/01/23 07:08:30;;;;;;;54.00;36.20;;;;;;;3.73;100.00;102495.94;5071605;28;20383;-62
2022/01/23 07:10:55;;;;;;;53.58;36.55;;;;;;;3.70;100.00;102512.38;5070474;28;20024;-61
2022/01/23 07:13:21;;;;;;;51.80;36.88;;;;;;;3.47;100.00;102474.84;5070085;28;20390;-61
2022/01/23 07:15:47;;;;;;;51.05;34.05;;;;;;;3.51;100.00;102476.66;5069137;28;20028;-61
2022/01/23 07:18:13;;;;;;;53.28;33.83;;;;;;;3.68;100.00;102510.63;5074538;28;20070;-61
2022/01/23 07:20:38;;;;;;;55.97;36.00;;;;;;;3.67;100.00;102512.34;5073893;28;20032;-61
2022/01/23 07:23:03;;;;;;;55.63;36.10;;;;;;;3.66;100.00;102513.19;5071650;28;20390;-61
2022/01/23 07:25:29;;;;;;;50.17;35.63;;;;;;;3.66;100.00;102510.59;5074569;28;20033;-61
2022/01/23 07:27:57;;;;;;;51.70;35.95;;;;;;;3.65;100.00;102511.44;5074989;28;20090;-62
2022/01/23 07:32:57;;;;;;;;;;;;;;;3.68;100.00;102531.44;5079363;28;20036;-62
2022/01/23 07:35:22;;;;;;;61.58;37.33;;;;;;;3.71;100.00;102529.75;5090696;28;20013;-63
2022/01/23 07:37:48;;;;;;;63.80;40.58;;;;;;;3.67;100.00;102527.94;5095261;28;20036;-62
2022/01/23 07:40:13;;;;;;;58.42;42.13;;;;;;;3.37;100.00;102488.59;5095363;28;20482;-59
2022/01/23 07:42:39;;;;;;;56.70;38.83;;;;;;;3.70;100.00;102546.19;5090123;28;20033;-58
2022/01/23 07:45:05;;;;;;;64.47;38.85;;;;;;;3.70;100.00;102537.50;5083088;28;20024;-58
2022/01/23 07:47:30;;;;;;;56.90;40.38;;;;;;;3.72;100.00;102544.47;5076044;28;20055;-59
2022/01/23 07:49:56;;;;;;;53.22;36.33;;;;;;;3.77;100.00;102541.94;5074450;28;20064;-58
2022/01/23 07:52:21;;;;;;;58.72;38.05;;;;;;;3.79;100.00;102529.81;5073821;28;20056;-58
2022/01/23 07:54:46;;;;;;;55.55;38.92;;;;;;;3.66;100.00;102513.19;5073931;28;20104;-69
2022/01/23 07:57:12;;;;;;;58.00;38.97;;;;;;;3.57;100.00;102493.19;5072328;28;20032;-63
2022/01/23 07:59:37;;;;;;;53.60;38.13;;;;;;;3.78;100.00;102536.75;5074245;28;20029;-65
2022/01/23 08:02:03;;;;;;;58.03;39.33;;;;;;;3.75;100.00;102522.84;5074144;28;20074;-64
2022/01/23 08:04:29;;;;;;;66.15;38.45;;;;;;;3.83;100.00;102540.28;5064777;28;20024;-63
2022/01/23 08:07:08;;;;;;;61.58;41.17;;;;;;;3.82;100.00;102538.53;5073984;28;20031;-65
2022/01/23 08:09:34;;;;;;;57.47;40.47;;;;;;;3.65;100.00;102506.25;5074058;28;20036;-64
2022/01/23 08:11:59;;;;;;;57.20;37.75;;;;;;;3.82;100.00;102541.13;5069983;28;20027;-62
2022/01/23 08:14:25;;;;;;;63.53;39.78;;;;;;;3.72;100.00;102513.25;5074077;28;20074;-64
2022/01/23 08:16:50;;;;;;;58.58;38.42;;;;;;;3.68;100.00;102519.31;5073969;28;20028;-64
2022/01/23 08:19:16;;;;;;;57.35;39.17;;;;;;;3.83;100.00;102542.88;5064548;28;20838;-64
2022/01/23 08:21:41;;;;;;;55.67;36.95;;;;;;;3.84;100.00;102538.56;5070582;28;20923;-61
2022/01/23 08:24:06;;;;;;;56.50;39.08;;;;;;;3.92;100.00;102552.53;5074566;28;20029;-62
2022/01/23 08:26:32;;;;;;;59.45;41.55;;;;;;;3.93;100.00;102549.94;5074759;28;20466;-61
2022/01/23 08:28:57;;;;;;;63.10;40.00;;;;;;;3.95;100.00;102557.75;5075142;28;20082;-61
2022/01/23 08:31:23;;;;;;;58.53;39.80;;;;;;;3.90;100.00;102549.91;5074294;28;20029;-61
2022/01/23 08:33:48;;;;;;;53.47;36.95;;;;;;;3.97;100.00;102551.72;5088719;28;20025;-63
2022/01/23 08:36:14;;;;;;;48.40;36.63;;;;;;;3.97;100.00;102546.50;5073661;28;20036;-63
2022/01/23 08:38:40;;;;;;;57.55;35.80;;;;;;;4.01;100.00;102556.09;5074939;28;20046;-63
2022/01/23 08:43:37;;;;;;;60.60;39.40;;;;;;;4.06;100.00;102558.72;5074564;28;20102;-63
2022/01/23 08:46:04;;;;;;;51.03;36.13;;;;;;;4.05;100.00;102565.69;5070854;28;20028;-63
2022/01/23 08:48:29;;;;;;;54.55;35.53;;;;;;;3.73;100.00;102504.63;5074084;28;20024;-63
2022/01/23 08:50:55;;;;;;;49.60;36.95;;;;;;;4.09;100.00;102559.63;5074649;28;20033;-63
2022/01/23 08:53:20;;;;;;;58.30;37.75;;;;;;;4.16;100.00;102567.53;5071692;28;20051;-63
2022/01/23 08:55:47;;;;;;;49.03;35.58;;;;;;;4.16;100.00;102567.53;5067099;28;20044;-63
2022/01/23 08:58:14;;;;;;;66.05;40.03;;;;;;;4.10;100.00;102564.00;5068642;28;20455;-63
2022/01/23 09:00:39;;;;;;;59.67;37.13;;;;;;;4.09;100.00;102564.84;5084366;28;20498;-63
2022/01/23 09:03:04;;;;;;;54.70;38.97;;;;;;;4.07;100.00;102555.28;5089645;28;20024;-64
2022/01/23 09:05:30;;;;;;;47.35;35.00;;;;;;;4.17;100.00;102570.13;5074089;28;20024;-64
2022/01/23 09:07:56;;;;;;;53.97;34.05;;;;;;;4.21;100.00;102576.25;5074226;28;20067;-64
2022/01/23 09:10:27;;;;;;;52.17;36.63;;;;;;;4.22;100.00;102571.06;5074209;28;20027;-63
2022/01/23 09:15:34;;;;;;;51.25;34.63;;;;;;;4.22;100.00;102558.06;5088216;28;20048;-63
2022/01/23 09:18:01;;;;;;;58.20;38.58;;;;;;;4.28;100.00;102571.13;5074060;28;20069;-64
2022/01/23 09:20:26;;;;;;;56.60;37.50;;;;;;;4.32;100.00;102569.44;5073165;28;20059;-63
2022/01/23 09:22:52;;;;;;;53.20;37.38;;;;;;;4.33;100.00;102571.16;5070378;28;20538;-64
2022/01/23 09:25:18;;;;;;;51.35;35.05;;;;;;;4.37;100.00;102563.41;5073737;28;20482;-63
2022/01/23 09:27:43;;;;;;;56.33;37.45;;;;;;;4.39;100.00;102577.34;5069455;28;20379;-63
2022/01/23 09:30:17;;;;;;;53.60;36.13;;;;;;;4.43;100.00;102575.59;5072444;28;20467;-63
2022/01/23 09:32:44;;;;;;;58.85;38.33;;;;;;;4.45;100.00;102573.91;5072034;28;20036;-63
2022/01/23 09:35:10;;;;;;;59.55;39.70;;;;;;;4.49;100.00;102578.28;5067757;28;20024;-63
2022/01/23 09:37:35;;;;;;;56.63;40.08;;;;;;;4.49;100.00;102573.09;5073100;28;20032;-63
2022/01/23 09:40:02;;;;;;;54.75;36.97;;;;;;;4.52;100.00;102573.13;5072969;28;20352;-63
2022/01/23 09:42:34;;;;;;;50.90;34.00;;;;;;;4.53;100.00;102582.63;5071830;28;20367;-63
2022/01/23 09:45:04;;;;;;;49.97;37.35;;;;;;;4.53;100.00;102580.91;5071371;28;20110;-63
2022/01/23 09:47:29;;;;;;;66.90;45.92;;;;;;;4.53;100.00;102575.72;5072673;28;20115;-63
2022/01/23 09:49:55;;;;;;;57.72;38.47;;;;;;;4.57;100.00;102581.81;5088855;28;20122;-63
2022/01/23 09:52:21;;;;;;;57.83;37.88;;;;;;;4.39;100.00;102555.63;5072703;28;20032;-63
2022/01/23 09:54:57;;;;;;;56.85;37.78;;;;;;;4.54;100.00;102581.78;5075895;28;20024;-63
2022/01/23 09:57:25;;;;;;;48.83;34.35;;;;;;;4.58;100.00;102584.47;5093084;28;20031;-63
2022/01/23 09:59:53;;;;;;;49.42;32.72;;;;;;;4.42;100.00;102553.06;5093261;28;20036;-63
2022/01/23 10:02:19;;;;;;;45.42;32.25;;;;;;;4.63;100.00;102587.09;5093832;28;20031;-61
2022/01/23 10:04:44;;;;;;;43.53;33.33;;;;;;;4.65;100.00;102598.41;5093035;28;20493;-61
2022/01/23 10:07:10;;;;;;;47.47;33.00;;;;;;;4.65;100.00;102590.59;5093421;28;20115;-63
2022/01/23 10:09:36;;;;;;;49.13;32.60;;;;;;;4.41;100.00;102553.91;5093099;28;20069;-61
2022/01/23 10:12:02;;;;;;;55.85;34.80;;;;;;;4.69;100.00;102597.56;5093285;28;20413;-66
2022/01/23 10:14:27;;;;;;;47.28;32.75;;;;;;;4.71;100.00;102585.44;5092005;28;20024;-65
2022/01/23 10:16:53;;;;;;;42.22;32.35;;;;;;;4.73;100.00;102588.91;5092848;28;20078;-65
2022/01/23 10:19:18;;;;;;;47.45;33.28;;;;;;;4.77;100.00;102587.22;5093008;28;20043;-66
2022/01/23 10:21:45;;;;;;;43.70;31.00;;;;;;;4.80;100.00;102592.47;5092633;28;20038;-62
2022/01/23 10:24:14;;;;;;;44.55;31.42;;;;;;;4.74;100.00;102577.66;5073030;28;20386;-67
2022/01/23 10:26:53;;;;;;;41.90;30.83;;;;;;;4.81;100.00;102587.25;5072316;28;20036;-61
2022/01/23 10:29:21;;;;;;;47.70;34.42;;;;;;;4.80;100.00;102592.47;5068514;28;20036;-70
2022/01/23 10:32:06;;;;;;;45.08;31.98;;;;;;;4.86;100.00;102596.00;5072179;28;20040;-67
2022/01/23 10:34:50;;;;;;;40.60;30.75;;;;;;;4.89;100.00;102590.81;5069478;28;20498;-65
2022/01/23 10:37:32;;;;;;;48.13;32.50;;;;;;;4.88;100.00;102582.97;5080597;28;20036;-66
2022/01/23 10:40:00;;;;;;;44.88;31.02;;;;;;;4.93;100.00;102582.16;5073293;28;20122;-67
2022/01/23 10:48:13;;;;;;;41.10;31.73;;;;;;;4.52;100.00;102510.66;5072776;28;20116;-69
2022/01/23 10:50:39;;;;;;;46.22;31.30;;;;;;;4.92;100.00;102570.00;5072417;28;20119;-69
2022/01/23 10:53:04;;;;;;;41.45;30.52;;;;;;;4.95;100.00;102566.53;5067084;28;20112;-67
2022/01/23 10:55:32;;;;;;;44.78;31.10;;;;;;;4.51;100.00;102493.28;5068165;28;20079;-66
2022/01/23 10:58:01;;;;;;;40.10;29.88;;;;;;;4.99;100.00;102570.91;5050742;28;20055;-64
2022/01/23 11:00:45;;;;;;;46.00;31.48;;;;;;;5.06;100.00;102573.59;5076197;28;20032;-61
2022/01/23 11:03:22;;;;;;;42.78;31.08;;;;;;;5.09;100.00;102567.50;5080719;28;20037;-61
2022/01/23 11:05:48;;;;;;;50.17;32.47;;;;;;;5.15;100.00;102570.16;5080870;28;20032;-63
2022/01/23 11:08:29;;;;;;;44.58;30.88;;;;;;;5.19;100.00;102574.53;5077349;28;20101;-62
2022/01/23 11:11:02;;;;;;;44.38;31.67;;;;;;;5.24;100.00;102569.38;5084500;28;20021;-64
2022/01/23 11:19:21;;;;;;;45.45;30.55;;;;;;;5.26;100.00;102559.81;5081523;28;20040;-65
2022/01/23 11:21:47;;;;;;;38.15;30.00;;;;;;;5.30;100.00;102557.25;5078266;28;20097;-66
2022/01/23 11:24:13;;;;;;;44.60;30.73;;;;;;;5.37;100.00;102560.75;5075621;28;20455;-66
2022/01/23 11:26:39;;;;;;;51.05;32.75;;;;;;;5.39;100.00;102565.09;5083202;28;20493;-64
2022/01/23 11:29:10;;;;;;;47.13;33.63;;;;;;;5.35;100.00;102559.84;5078221;28;20108;-65
2022/01/23 11:31:38;;;;;;;44.30;32.80;;;;;;;5.38;100.00;102567.69;5077038;28;20052;-65
2022/01/23 11:34:06;;;;;;;53.20;32.97;;;;;;;5.39;100.00;102557.28;5075256;28;20025;-60
2022/01/23 11:36:31;;;;;;;43.25;31.52;;;;;;;5.34;100.00;102547.72;5081139;28;20044;-60
2022/01/23 11:39:05;;;;;;;47.92;31.83;;;;;;;5.42;100.00;102561.63;5077804;28;20021;-61
2022/01/23 11:55:34;;;;;;;50.70;32.78;;;;;;;5.45;100.00;102551.22;5075076;28;20071;-62
2022/01/23 11:58:00;;;;;;;45.75;31.02;;;;;;;5.47;100.00;102547.78;5077087;28;20025;-65
2022/01/23 12:00:38;;;;;;;44.47;32.78;;;;;;;5.51;100.00;102546.03;5074919;28;20078;-66
2022/01/23 12:03:20;;;;;;;46.30;31.42;;;;;;;5.53;100.00;102536.50;5074764;28;20030;-65
2022/01/23 12:05:47;;;;;;;44.10;31.80;;;;;;;5.34;100.00;102495.59;5080709;28;20025;-66
2022/01/23 12:08:21;;;;;;;59.47;33.75;;;;;;;5.56;100.00;102528.69;5080027;28;20547;-64
2022/01/23 12:16:52;;;;;;;44.88;32.42;;;;;;;5.63;100.00;102525.25;5083466;28;20486;-63
2022/01/23 12:19:23;;;;;;;50.80;31.63;;;;;;;5.66;100.00;102522.66;5076822;28;20031;-65
2022/01/23 12:21:52;;;;;;;43.60;30.98;;;;;;;5.11;100.00;102423.34;5074757;28;20039;-65
2022/01/23 12:24:19;;;;;;;42.78;32.08;;;;;;;5.54;100.00;102499.16;5075966;28;20040;-67
2022/01/23 12:26:45;;;;;;;42.08;30.88;;;;;;;5.65;100.00;102510.47;5092537;28;20051;-66
2022/01/23 12:29:11;;;;;;;41.88;29.33;;;;;;;5.69;100.00;102514.84;5075748;28;20600;-63
2022/01/23 12:31:37;;;;;;;40.30;31.25;;;;;;;5.66;100.00;102500.06;5076809;28;20033;-64
2022/01/23 12:34:03;;;;;;;40.47;29.50;;;;;;;5.76;100.00;102516.59;5074192;28;20501;-62
2022/01/23 12:36:31;;;;;;;37.47;29.60;;;;;;;5.77;100.00;102507.94;5074442;28;20021;-65
2022/01/23 12:39:05;;;;;;;32.63;25.60;;;;;;;5.86;100.00;102512.31;5076872;28;20028;-68
2022/01/23 12:41:52;;;;;;;34.13;26.42;;;;;;;5.89;100.00;102505.38;5071220;28;20036;-64
2022/01/23 12:44:23;;;;;;;37.15;26.30;;;;;;;5.89;100.00;102513.22;5074318;28;20036;-60
2022/01/23 12:46:51;;;;;;;37.38;25.73;;;;;;;5.90;100.00;102507.13;5074238;28;20044;-64
2022/01/23 12:49:34;;;;;;;32.60;24.30;;;;;;;5.94;100.00;102503.69;5074140;28;20046;-66
2022/01/23 12:52:05;;;;;;;38.28;27.85;;;;;;;6.00;100.00;102495.84;5074902;28;20482;-64
2022/01/23 12:54:32;;;;;;;33.80;24.75;;;;;;;6.07;100.00;102496.72;5074052;28;20489;-60
2022/01/23 12:57:12;;;;;;;35.88;24.10;;;;;;;6.13;100.00;102492.41;5074107;28;20024;-60
2022/01/23 12:59:38;;;;;;;42.83;23.00;;;;;;;6.15;100.00;102497.63;5065283;28;20503;-62
2022/01/23 13:02:09;;;;;;;31.70;21.13;;;;;;;6.13;100.00;102487.19;5073981;28;20088;-61
2022/01/23 13:04:38;;;;;;;27.83;20.90;;;;;;;5.78;100.00;102423.56;5074481;28;20028;-60
2022/01/23 13:07:11;;;;;;;28.23;21.90;;;;;;;6.13;100.00;102481.97;5069474;28;20040;-60
2022/01/23 13:12:30;;;;;;;36.75;21.83;;;;;;;6.02;100.00;102477.56;5055363;28;20087;-62
2022/01/23 13:31:35;;;;;;;29.70;21.60;;;;;;;6.04;100.00;102466.28;5041741;28;20171;-60
2022/01/23 13:34:00;;;;;;;27.25;20.25;;;;;;;6.08;100.00;102472.41;5043984;28;20028;-63
2022/01/23 13:36:26;;;;;;;25.50;19.58;;;;;;;6.12;100.00;102467.16;5033132;28;20035;-61
2022/01/23 13:38:55;;;;;;;26.55;20.08;;;;;;;6.12;100.00;102471.50;5026941;28;20135;-61
2022/01/23 13:41:35;;;;;;;27.60;19.58;;;;;;;6.14;100.00;102467.19;5027269;28;20033;-61
2022/01/23 13:52:26;;;;;;;27.35;18.17;;;;;;;6.14;100.00;102467.19;5027243;28;20069;-62
2022/01/23 13:58:05;;;;;;;24.73;15.75;;;;;;;6.11;100.00;102449.78;5028218;28;20105;-61
2022/01/23 14:00:31;;;;;;;26.02;17.45;;;;;;;6.13;100.00;102455.84;5028103;28;20068;-63
2022/01/23 14:02:56;;;;;;;21.58;16.88;;;;;;;6.06;100.00;102451.50;5030998;28;20133;-61
2022/01/23 14:05:28;;;;;;;22.73;15.85;;;;;;;6.07;100.00;102461.09;5030920;28;20047;-62
2022/01/23 14:07:57;;;;;;;25.80;15.60;;;;;;;6.05;100.00;102457.56;5030370;28;20037;-61
2022/01/23 14:10:28;;;;;;;22.13;15.48;;;;;;;6.02;100.00;102457.56;5032010;28;20097;-61
2022/01/23 14:12:55;;;;;;;20.73;14.75;;;;;;;5.99;100.00;102452.34;5030615;28;20037;-61
2022/01/23 14:15:24;;;;;;;24.23;15.70;;;;;;;5.90;100.00;102441.91;5027330;28;20035;-62
2022/01/23 14:18:02;;;;;;;20.23;15.93;;;;;;;5.95;100.00;102449.72;5042923;28;20881;-61
2022/01/23 14:20:29;;;;;;;20.65;15.43;;;;;;;5.92;100.00;102453.22;5025550;28;20948;-61
2022/01/23 14:22:56;;;;;;;22.33;15.52;;;;;;;5.88;100.00;102454.06;5027363;28;20148;-62
2022/01/23 14:25:27;;;;;;;21.30;14.80;;;;;;;5.88;100.00;102454.06;5027197;28;20137;-63
2022/01/23 14:28:11;;;;;;;21.75;15.40;;;;;;;5.89;100.00;102450.59;5028104;28;20348;-61
2022/01/23 14:30:48;;;;;;;20.73;15.70;;;;;;;5.89;100.00;102460.16;5030626;28;20059;-62
2022/01/23 14:33:21;;;;;;;24.13;17.13;;;;;;;5.88;100.00;102459.28;5030854;28;20039;-61
2022/01/23 14:35:47;;;;;;;31.63;16.23;;;;;;;5.87;100.00;102460.19;5032025;28;20036;-63
2022/01/23 14:38:20;;;;;;;20.98;15.75;;;;;;;5.81;100.00;102460.13;5048234;28;20028;-63
2022/01/23 14:40:58;;;;;;;23.88;16.48;;;;;;;5.72;100.00;102451.38;5036328;28;20034;-61
2022/01/23 14:43:37;;;;;;;18.95;15.15;;;;;;;5.75;100.00;102473.13;5035725;28;20036;-59